Time;durP1;ratioP1;P1;durP2;ratioP2;P2;SDS_P1;SDS_P2;PMS_P1;PMS_P2;Temp;Humidity;BMP_temperature;BMP_pressure;BME280_temperature;BME280_humidity;BME280_pressure;Samples;Min_cycle;Max_cycle;Signal;HPM_P1;HPM_P2
2022/06/16 00:02:13;;;;;;;;;;;;;;;13.20;65.60;100260.05;1811735;79;20657;-81
2022/06/16 00:05:20;;;;;;;;;;;;;;;13.14;65.76;100266.33;1811641;79;20204;-81
2022/06/16 00:08:26;;;;;;;;;;;;;;;13.10;65.96;100262.27;1779672;79;20754;-80
2022/06/16 00:11:34;;;;;;;;;;;;;;;13.05;66.18;100262.84;1778341;80;20257;-80
2022/06/16 00:14:37;;;;;;;;;;;;;;;13.01;66.42;100259.62;1778473;80;20258;-80
2022/06/16 00:17:37;;;;;;;;;;;;;;;12.97;66.58;100261.05;1779070;80;20234;-80
2022/06/16 00:20:42;;;;;;;;;;;;;;;12.96;66.74;100261.25;1780007;80;20211;-80
2022/06/16 00:23:47;;;;;;;;;;;;;;;12.95;66.85;100265.90;1742606;82;20236;-80
2022/06/16 00:26:53;;;;;;;;;;;;;;;12.93;66.95;100258.36;1710327;84;20259;-80
2022/06/16 00:29:57;;;;;;;;;;;;;;;12.92;67.07;100262.16;1710181;84;20227;-80
2022/06/16 00:33:02;;;;;;;;;;;;;;;12.90;67.16;100260.66;1711688;84;20303;-80
2022/06/16 00:36:07;;;;;;;;;;;;;;;12.88;67.30;100261.36;1711814;84;20242;-80
2022/06/16 00:39:13;;;;;;;;;;;;;;;12.84;67.39;100260.04;1711566;84;20366;-80
2022/06/16 00:42:20;;;;;;;;;;;;;;;12.82;67.53;100262.98;1705886;84;20324;-80
2022/06/16 00:45:55;;;;;;;;;;;;;;;12.79;67.62;100257.87;1707495;84;20239;-80
2022/06/16 00:49:05;;;;;;;;;;;;;;;12.77;67.67;100266.83;1707672;84;20618;-80
2022/06/16 00:52:14;;;;;;;;;;;;;;;12.74;67.77;100270.80;1714994;83;20289;-81
2022/06/16 00:55:21;;;;;;;;;;;;;;;12.73;67.87;100267.73;1763702;81;20231;-80
2022/06/16 00:58:25;;;;;;;;;;;;;;;12.71;67.95;100268.98;1731537;82;20269;-80
2022/06/16 01:01:31;;;;;;;;;;;;;;;12.67;68.07;100271.25;1757751;81;20227;-80
2022/06/16 01:04:52;;;;;;;;;;;;;;;12.63;68.24;100275.41;1757858;81;20309;-80
2022/06/16 01:07:58;;;;;;;;;;;;;;;12.60;68.31;100279.05;1743724;81;20224;-80
2022/06/16 01:10:56;;;;;;;;;;;;;;;12.58;68.42;100281.14;1708917;84;20270;-80
2022/06/16 01:13:53;;;;;;;;;;;;;;;12.56;68.54;100281.83;1708018;84;20226;-80
2022/06/16 01:16:57;;;;;;;;;;;;;;;12.54;68.70;100287.52;1705350;83;20233;-80
2022/06/16 01:20:11;;;;;;;;;;;;;;;12.53;68.76;100283.93;1722203;83;20256;-80
2022/06/16 01:23:26;;;;;;;;;;;;;;;12.51;68.84;100286.03;1726526;83;20659;-80
2022/06/16 01:26:53;;;;;;;;;;;;;;;12.51;68.86;100282.41;1729207;83;20237;-81
2022/06/16 01:30:11;;;;;;;;;;;;;;;12.49;68.92;100285.34;1734954;82;21131;-80
2022/06/16 01:33:32;;;;;;;;;;;;;;;12.49;68.93;100290.83;1730596;82;20679;-81
2022/06/16 01:36:43;;;;;;;;;;;;;;;12.49;68.94;100290.83;1684058;83;20182;-81
2022/06/16 01:40:10;;;;;;;;;;;;;;;12.48;68.99;100296.00;1706001;84;20190;-81
2022/06/16 01:43:20;;;;;;;;;;;;;;;12.49;68.98;100294.10;1707828;82;20236;-80
2022/06/16 01:46:36;;;;;;;;;;;;;;;12.51;68.88;100292.00;1705254;84;20309;-80
2022/06/16 01:49:46;;;;;;;;;;;;;;;12.54;68.82;100299.34;1707615;84;20235;-80
2022/06/16 01:53:03;;;;;;;;;;;;;;;12.56;68.75;100301.04;1720477;83;20198;-81
2022/06/16 01:56:23;;;;;;;;;;;;;;;12.58;68.66;100305.84;1724237;83;20273;-80
2022/06/16 01:59:32;;;;;;;;;;;;;;;12.76;68.44;100300.81;1751669;81;20606;-80
2022/06/16 02:02:37;;;;;;;;;;;;;;;13.13;67.52;100305.83;1758324;81;20263;-80
2022/06/16 02:05:47;;;;;;;;;;;;;;;13.56;66.24;100305.37;1756898;81;20632;-80
2022/06/16 02:08:55;;;;;;;;;;;;;;;13.98;64.75;100300.38;1747845;81;20266;-80
2022/06/16 02:12:03;;;;;;;;;;;;;;;14.46;63.28;100305.17;1773480;81;20234;-80
2022/06/16 02:15:09;;;;;;;;;;;;;;;14.92;61.54;100305.47;1772053;81;20219;-80
2022/06/16 02:18:20;;;;;;;;;;;;;;;15.33;59.95;100305.92;1772733;81;20316;-80
2022/06/16 02:21:42;;;;;;;;;;;;;;;15.65;58.40;100312.61;1773612;81;20288;-80
2022/06/16 02:24:46;;;;;;;;;;;;;;;15.93;57.45;100318.48;1733087;81;20519;-80
2022/06/16 02:27:51;;;;;;;;;;;;;;;16.29;56.07;100319.45;1739541;82;20233;-81
2022/06/16 02:31:10;;;;;;;;;;;;;;;16.60;55.08;100320.98;1735657;82;20229;-80
2022/06/16 02:34:50;;;;;;;;;;;;;;;16.97;54.07;100319.95;1714313;83;20278;-80
2022/06/16 02:38:29;;;;;;;;;;;;;;;17.50;52.73;100323.01;1724461;83;20290;-81
2022/06/16 02:41:45;;;;;;;;;;;;;;;18.07;51.12;100324.80;1761877;81;20243;-81
2022/06/16 02:45:12;;;;;;;;;;;;;;;18.54;49.55;100333.55;1764164;81;20199;-81
2022/06/16 02:48:39;;;;;;;;;;;;;;;18.89;48.27;100324.67;1763991;81;20601;-81
2022/06/16 02:51:46;;;;;;;;;;;;;;;19.12;47.26;100330.91;1758264;81;20307;-81
2022/06/16 02:55:02;;;;;;;;;;;;;;;19.28;46.80;100324.72;1732964;83;20319;-81
2022/06/16 02:58:07;;;;;;;;;;;;;;;19.46;46.51;100328.02;1707280;84;20227;-81
2022/06/16 03:01:14;;;;;;;;;;;;;;;19.76;45.90;100329.96;1732311;82;20218;-81
2022/06/16 03:04:21;;;;;;;;;;;;;;;20.06;45.46;100332.17;1705071;84;20581;-81
2022/06/16 03:07:28;;;;;;;;;;;;;;;20.39;44.57;100333.01;1720829;83;20201;-81
2022/06/16 03:10:51;;;;;;;;;;;;;;;20.70;44.03;100332.91;1770884;81;20222;-81
2022/06/16 03:13:56;;;;;;;;;;;;;;;20.99;43.31;100337.50;1740308;82;20634;-81
2022/06/16 03:17:05;;;;;;;;;;;;;;;21.18;42.81;100331.23;1738100;82;20650;-81
2022/06/16 03:20:11;;;;;;;;;;;;;;;21.30;42.23;100335.36;1712936;83;20342;-81
2022/06/16 03:23:17;;;;;;;;;;;;;;;21.26;42.24;100335.55;1730349;82;20221;-81
2022/06/16 03:26:20;;;;;;;;;;;;;;;21.17;42.76;100339.25;1714654;83;20685;-81
2022/06/16 03:29:27;;;;;;;;;;;;;;;21.14;42.78;100346.17;1716410;83;20222;-81
2022/06/16 03:32:33;;;;;;;;;;;;;;;21.16;42.31;100345.91;1762820;81;20235;-81
2022/06/16 03:35:38;;;;;;;;;;;;;;;21.13;42.69;100343.09;1745634;82;20231;-81
2022/06/16 03:38:42;;;;;;;;;;;;;;;21.23;42.94;100336.91;1749487;81;20265;-81
2022/06/16 03:41:47;;;;;;;;;;;;;;;21.46;42.90;100341.59;1720261;82;20687;-81
2022/06/16 03:44:52;;;;;;;;;;;;;;;21.64;42.22;100340.01;1712906;82;20248;-81
2022/06/16 03:47:58;;;;;;;;;;;;;;;21.75;42.07;100336.02;1716482;82;20200;-81
2022/06/16 03:51:05;;;;;;;;;;;;;;;21.80;42.09;100343.08;1730466;82;20637;-81
2022/06/16 03:54:10;;;;;;;;;;;;;;;21.80;42.29;100341.69;1740307;82;20656;-80
2022/06/16 03:57:16;;;;;;;;;;;;;;;21.65;42.12;100340.30;1722300;83;20839;-81
2022/06/16 04:00:21;;;;;;;;;;;;;;;21.38;42.69;100343.36;1721106;83;20227;-80
2022/06/16 04:07:00;;;;;;;;;;;;;;;20.98;44.23;100339.95;1735522;82;20578;-80
2022/06/16 04:10:13;;;;;;;;;;;;;;;20.84;45.04;100342.69;1717100;83;20420;-80
2022/06/16 04:13:05;;;;;;;;;;;;;;;20.67;45.74;100339.81;1717783;83;20248;-80
2022/06/16 04:15:52;;;;;;;;;;;;;;;20.54;46.39;100343.67;1735088;82;20221;-81
2022/06/16 04:18:57;;;;;;;;;;;;;;;20.47;46.94;100348.52;1735905;82;20198;-81
2022/06/16 04:22:01;;;;;;;;;;;;;;;20.38;47.18;100341.59;1721796;82;20211;-81
2022/06/16 04:25:08;;;;;;;;;;;;;;;20.25;47.59;100341.81;1741982;82;20222;-81
2022/06/16 04:28:14;;;;;;;;;;;;;;;20.17;48.04;100345.22;1738922;82;20229;-80
2022/06/16 04:31:20;;;;;;;;;;;;;;;20.23;48.07;100355.07;1734801;81;20213;-80
2022/06/16 04:34:25;;;;;;;;;;;;;;;20.29;47.91;100347.20;1706418;84;20231;-80
2022/06/16 04:37:30;;;;;;;;;;;;;;;20.35;47.24;100351.23;1720108;83;20528;-81
2022/06/16 04:40:35;;;;;;;;;;;;;;;20.38;46.68;100351.31;1748810;82;20212;-81
2022/06/16 04:43:39;;;;;;;;;;;;;;;20.39;46.29;100358.55;1745857;82;20204;-81
2022/06/16 04:46:38;;;;;;;;;;;;;;;20.43;46.21;100354.22;1720215;83;20266;-80
2022/06/16 04:49:32;;;;;;;;;;;;;;;20.45;46.20;100358.98;1719660;83;20242;-80
2022/06/16 04:52:36;;;;;;;;;;;;;;;20.50;46.40;100360.52;1721012;83;20255;-81
2022/06/16 04:55:42;;;;;;;;;;;;;;;20.62;46.25;100355.83;1712179;83;20265;-80
2022/06/16 04:58:50;;;;;;;;;;;;;;;20.76;45.85;100353.66;1748885;81;20261;-81
2022/06/16 05:02:02;;;;;;;;;;;;;;;20.87;45.08;100361.67;1759691;80;20369;-81
2022/06/16 05:05:17;;;;;;;;;;;;;;;20.97;44.66;100354.95;1753981;81;20210;-81
2022/06/16 05:08:37;;;;;;;;;;;;;;;21.10;44.75;100360.80;1709785;84;20224;-81
2022/06/16 05:11:42;;;;;;;;;;;;;;;21.29;44.59;100361.50;1682419;82;20221;-81
2022/06/16 05:14:57;;;;;;;;;;;;;;;21.55;44.40;100362.88;1733161;82;20217;-80
2022/06/16 05:18:08;;;;;;;;;;;;;;;21.81;42.31;100365.64;1732871;82;20647;-81
2022/06/16 05:21:22;;;;;;;;;;;;;;;21.98;41.90;100366.53;1731139;82;20185;-81
2022/06/16 05:24:38;;;;;;;;;;;;;;;22.12;40.71;100369.33;1729901;82;20261;-81
2022/06/16 05:27:32;;;;;;;;;;;;;;;22.29;40.17;100362.37;1713128;82;20268;-81
2022/06/16 05:30:49;;;;;;;;;;;;;;;22.44;39.89;100359.86;1734813;82;20719;-80
2022/06/16 05:34:02;;;;;;;;;;;;;;;22.63;38.66;100372.12;1680697;82;20187;-81
2022/06/16 05:37:18;;;;;;;;;;;;;;;22.75;38.56;100379.02;1706510;83;20205;-81
2022/06/16 05:40:40;;;;;;;;;;;;;;;22.87;38.11;100376.43;1723755;83;20202;-81
2022/06/16 05:43:47;;;;;;;;;;;;;;;23.02;37.95;100376.39;1715213;83;20245;-80
2022/06/16 05:46:55;;;;;;;;;;;;;;;23.16;38.50;100374.36;1740019;81;20203;-81
2022/06/16 05:50:05;;;;;;;;;;;;;;;23.27;37.43;100378.69;1712380;82;20230;-81
2022/06/16 05:53:11;;;;;;;;;;;;;;;23.34;35.96;100379.35;1736112;81;20241;-81
2022/06/16 05:56:16;;;;;;;;;;;;;;;23.32;36.82;100384.33;1742815;81;20231;-81
2022/06/16 05:59:21;;;;;;;;;;;;;;;23.33;37.68;100376.24;1708189;82;20611;-81
2022/06/16 06:02:27;;;;;;;;;;;;;;;23.43;37.05;100381.95;1719257;82;20404;-81
2022/06/16 06:05:34;;;;;;;;;;;;;;;23.57;37.75;100376.83;1724815;83;20230;-81
2022/06/16 06:19:46;;;;;;;;;;;;;;;23.89;37.09;100373.60;1728000;82;20253;-81
2022/06/16 06:22:17;;;;;;;;;;;;;;;23.87;35.32;100384.77;1708309;82;20343;-81
2022/06/16 06:25:32;;;;;;;;;;;;;;;23.90;35.73;100378.11;1721637;82;20226;-81
2022/06/16 06:28:36;;;;;;;;;;;;;;;23.97;36.13;100386.27;1713225;82;20627;-81
2022/06/16 06:31:40;;;;;;;;;;;;;;;23.94;34.27;100388.17;1726086;82;20285;-81
2022/06/16 06:34:45;;;;;;;;;;;;;;;23.92;34.97;100383.42;1718484;82;20213;-81
2022/06/16 06:37:51;;;;;;;;;;;;;;;23.97;34.38;100382.91;1713294;83;20233;-81
2022/06/16 06:40:57;;;;;;;;;;;;;;;23.98;34.45;100385.99;1716100;82;20331;-81
2022/06/16 06:44:01;;;;;;;;;;;;;;;23.95;35.94;100384.30;1722104;82;20222;-81
2022/06/16 06:47:06;;;;;;;;;;;;;;;23.94;35.93;100383.43;1715275;82;20271;-81
2022/06/16 06:50:11;;;;;;;;;;;;;;;24.03;33.89;100388.00;1746408;81;20242;-81
2022/06/16 06:53:17;;;;;;;;;;;;;;;24.10;33.44;100395.63;1744575;81;20211;-81
2022/06/16 06:56:16;;;;;;;;;;;;;;;24.13;34.33;100385.30;1724913;82;20278;-81
2022/06/16 06:59:22;;;;;;;;;;;;;;;24.14;31.56;100384.78;1732003;82;20241;-81
2022/06/16 07:02:28;;;;;;;;;;;;;;;24.14;32.80;100388.97;1731875;82;20217;-81
2022/06/16 07:05:32;;;;;;;;;;;;;;;24.23;34.65;100385.98;1725263;82;20245;-81
2022/06/16 07:08:38;;;;;;;;;;;;;;;24.34;34.61;100379.37;1720092;82;20222;-81
2022/06/16 07:11:39;;;;;;;;;;;;;;;24.42;32.76;100382.28;1729701;82;20673;-81
2022/06/16 07:14:44;;;;;;;;;;;;;;;24.51;33.91;100382.05;1739495;82;20228;-81
2022/06/16 07:17:49;;;;;;;;;;;;;;;24.54;33.13;100381.52;1734891;82;20189;-81
2022/06/16 07:20:53;;;;;;;;;;;;;;;24.55;33.22;100377.61;1723947;82;20211;-81
2022/06/16 07:23:59;;;;;;;;;;;;;;;24.56;33.97;100386.31;1719686;82;20229;-81
2022/06/16 07:27:04;;;;;;;;;;;;;;;24.48;33.51;100384.84;1724430;82;20243;-81
2022/06/16 07:30:13;;;;;;;;;;;;;;;24.45;34.28;100381.73;1722797;82;20212;-81
2022/06/16 07:33:15;;;;;;;;;;;;;;;24.45;33.97;100383.13;1725937;82;20229;-81
2022/06/16 07:36:22;;;;;;;;;;;;;;;24.49;34.46;100382.88;1733654;82;20202;-81
2022/06/16 07:39:27;;;;;;;;;;;;;;;24.61;34.28;100382.72;1735103;82;20215;-81
2022/06/16 07:42:33;;;;;;;;;;;;;;;24.80;35.01;100376.14;1718286;82;20233;-81
2022/06/16 07:45:38;;;;;;;;;;;;;;;24.95;34.04;100381.84;1734109;81;20231;-81
2022/06/16 07:48:42;;;;;;;;;;;;;;;25.12;34.32;100381.67;1723454;82;20229;-81
2022/06/16 07:51:48;;;;;;;;;;;;;;;25.34;34.07;100387.13;1730157;81;20686;-81
2022/06/16 07:54:52;;;;;;;;;;;;;;;25.43;33.88;100379.33;1726212;82;20280;-81
2022/06/16 07:57:59;;;;;;;;;;;;;;;25.45;34.37;100386.05;1729920;82;20229;-81
2022/06/16 08:01:07;;;;;;;;;;;;;;;25.39;32.84;100377.34;1721790;82;20221;-81
2022/06/16 08:04:11;;;;;;;;;;;;;;;25.21;33.31;100382.84;1728646;82;20222;-81
2022/06/16 08:07:17;;;;;;;;;;;;;;;25.16;33.19;100378.06;1732564;82;20196;-80
2022/06/16 08:10:25;;;;;;;;;;;;;;;25.16;32.99;100379.47;1726921;82;20380;-80
2022/06/16 08:13:27;;;;;;;;;;;;;;;25.03;33.75;100388.86;1718066;82;20731;-81
2022/06/16 08:16:19;;;;;;;;;;;;;;;24.89;33.81;100386.56;1722147;82;20241;-81
2022/06/16 08:19:04;;;;;;;;;;;;;;;24.97;33.63;100382.39;1726656;82;20292;-80
2022/06/16 08:21:56;;;;;;;;;;;;;;;25.05;33.69;100393.65;1734849;81;20261;-81
2022/06/16 08:25:01;;;;;;;;;;;;;;;24.96;32.65;100382.12;1725971;82;20231;-81
2022/06/16 08:28:07;;;;;;;;;;;;;;;24.98;34.05;100386.88;1723185;82;20355;-81
2022/06/16 08:31:13;;;;;;;;;;;;;;;25.30;32.92;100386.81;1732578;82;20249;-81
2022/06/16 08:34:19;;;;;;;;;;;;;;;25.56;31.89;100377.99;1730385;82;20204;-80
2022/06/16 08:37:24;;;;;;;;;;;;;;;25.62;31.16;100389.49;1734101;82;20196;-80
2022/06/16 08:40:27;;;;;;;;;;;;;;;25.54;31.34;100394.20;1730001;82;20225;-81
2022/06/16 08:43:36;;;;;;;;;;;;;;;25.47;31.17;100390.83;1725739;82;20269;-81
2022/06/16 08:46:55;;;;;;;;;;;;;;;25.52;31.42;100391.41;1726212;82;20281;-81
2022/06/16 08:50:11;;;;;;;;;;;;;;;25.71;31.26;100385.05;1730501;82;20273;-81
2022/06/16 08:53:27;;;;;;;;;;;;;;;26.02;30.93;100377.30;1726066;82;20637;-80
2022/06/16 08:56:58;;;;;;;;;;;;;;;26.08;30.71;100399.47;1728282;82;20784;-80
2022/06/16 09:00:16;;;;;;;;;;;;;;;25.93;30.28;100384.03;1726898;82;20257;-80
2022/06/16 09:03:33;;;;;;;;;;;;;;;25.67;30.87;100386.70;1734459;82;20237;-80
2022/06/16 09:06:53;;;;;;;;;;;;;;;25.29;31.27;100385.70;1727126;82;20198;-80
2022/06/16 09:10:19;;;;;;;;;;;;;;;24.88;31.61;100381.22;1732066;81;20222;-80
2022/06/16 09:13:43;;;;;;;;;;;;;;;24.71;32.46;100381.39;1715724;82;20382;-81
2022/06/16 09:16:54;;;;;;;;;;;;;;;24.84;33.07;100383.73;1743088;82;20225;-81
2022/06/16 09:20:03;;;;;;;;;;;;;;;25.11;31.80;100389.80;1729962;82;20237;-81
2022/06/16 09:23:29;;;;;;;;;;;;;;;25.31;31.23;100380.09;1713376;83;20227;-81
2022/06/16 09:26:53;;;;;;;;;;;;;;;25.49;31.84;100388.03;1733106;82;20216;-80
2022/06/16 09:30:04;;;;;;;;;;;;;;;25.60;31.40;100381.94;1735216;82;20231;-80
2022/06/16 09:33:14;;;;;;;;;;;;;;;25.64;30.50;100383.08;1740256;82;20213;-80
2022/06/16 09:36:21;;;;;;;;;;;;;;;25.58;30.12;100392.55;1737845;82;20599;-80
2022/06/16 09:39:30;;;;;;;;;;;;;;;25.48;30.36;100381.31;1753609;81;20631;-80
2022/06/16 09:42:49;;;;;;;;;;;;;;;25.37;30.42;100383.79;1722609;82;20200;-81
2022/06/16 09:46:07;;;;;;;;;;;;;;;25.39;30.49;100385.19;1715562;81;20312;-81
2022/06/16 09:49:13;;;;;;;;;;;;;;;25.50;30.70;100377.67;1735928;82;20260;-80
2022/06/16 09:52:26;;;;;;;;;;;;;;;25.58;30.79;100374.34;1725372;82;20232;-80
2022/06/16 09:55:39;;;;;;;;;;;;;;;25.63;30.32;100374.36;1722501;82;20230;-80
2022/06/16 09:58:50;;;;;;;;;;;;;;;25.59;29.69;100381.62;1719712;83;20608;-80
2022/06/16 10:01:58;;;;;;;;;;;;;;;25.47;29.64;100379.63;1733320;82;20214;-80
2022/06/16 10:05:03;;;;;;;;;;;;;;;25.30;29.81;100381.78;1707187;83;20240;-80
2022/06/16 10:08:13;;;;;;;;;;;;;;;25.33;30.75;100379.28;1720901;82;20230;-80
2022/06/16 10:11:30;;;;;;;;;;;;;;;25.49;29.21;100370.39;1721199;83;20798;-80
2022/06/16 10:14:44;;;;;;;;;;;;;;;25.53;29.12;100357.53;1705208;83;20258;-80
2022/06/16 10:17:51;;;;;;;;;;;;;;;25.62;29.42;100370.45;1708239;82;20551;-80
2022/06/16 10:20:58;;;;;;;;;;;;;;;25.72;29.40;100366.27;1727678;81;20248;-80
2022/06/16 10:24:05;;;;;;;;;;;;;;;25.79;28.97;100352.90;1726501;82;20253;-80
2022/06/16 10:27:11;;;;;;;;;;;;;;;25.91;29.63;100354.87;1708670;82;20612;-79
2022/06/16 10:30:17;;;;;;;;;;;;;;;26.22;30.68;100360.53;1730742;82;21289;-80
2022/06/16 10:33:33;;;;;;;;;;;;;;;26.39;29.62;100358.84;1716877;82;20197;-80
2022/06/16 10:36:39;;;;;;;;;;;;;;;26.38;29.72;100362.78;1716671;82;20221;-80
2022/06/16 10:39:48;;;;;;;;;;;;;;;26.37;30.26;100355.49;1724032;82;20300;-80
2022/06/16 10:43:05;;;;;;;;;;;;;;;26.44;30.60;100364.48;1716101;82;20243;-80
2022/06/16 10:46:18;;;;;;;;;;;;;;;26.36;29.72;100366.44;1706681;84;20271;-80
2022/06/16 10:49:26;;;;;;;;;;;;;;;26.09;29.39;100359.11;1706652;84;20230;-80
2022/06/16 10:52:35;;;;;;;;;;;;;;;25.95;28.52;100353.77;1731315;82;20213;-80
2022/06/16 10:55:46;;;;;;;;;;;;;;;25.92;29.05;100351.50;1735178;82;20579;-80
2022/06/16 10:58:58;;;;;;;;;;;;;;;26.16;29.29;100355.49;1715133;82;20253;-80
2022/06/16 11:02:09;;;;;;;;;;;;;;;26.36;28.48;100351.02;1716236;82;20222;-80
2022/06/16 11:05:19;;;;;;;;;;;;;;;26.45;29.90;100349.37;1705837;83;20228;-79
2022/06/16 11:08:25;;;;;;;;;;;;;;;26.51;29.47;100341.22;1731558;81;20261;-80
2022/06/16 11:11:52;;;;;;;;;;;;;;;26.56;28.93;100356.64;1732485;82;20213;-80
2022/06/16 11:15:08;;;;;;;;;;;;;;;26.54;28.44;100356.63;1740395;81;20227;-80
2022/06/16 11:18:14;;;;;;;;;;;;;;;26.44;28.50;100344.86;1757700;81;20668;-80
2022/06/16 11:21:24;;;;;;;;;;;;;;;26.30;28.37;100349.31;1718154;82;20224;-80
2022/06/16 11:24:31;;;;;;;;;;;;;;;26.30;27.96;100347.91;1731635;82;20273;-80
2022/06/16 11:27:36;;;;;;;;;;;;;;;26.39;27.67;100340.05;1768907;81;20664;-80
2022/06/16 11:30:56;;;;;;;;;;;;;;;26.55;27.23;100342.91;1709742;82;20209;-80
2022/06/16 11:34:25;;;;;;;;;;;;;;;26.58;27.04;100343.73;1714044;82;20577;-80
2022/06/16 11:37:47;;;;;;;;;;;;;;;26.60;26.80;100340.10;1728669;81;20221;-80
2022/06/16 11:41:00;;;;;;;;;;;;;;;26.67;27.50;100337.83;1749707;81;20255;-80
2022/06/16 11:44:20;;;;;;;;;;;;;;;26.86;26.35;100336.11;1762400;81;20289;-80
2022/06/16 11:47:49;;;;;;;;;;;;;;;26.92;25.78;100338.37;1733101;82;20190;-80
2022/06/16 11:51:12;;;;;;;;;;;;;;;27.05;27.00;100336.34;1760836;81;20513;-80
2022/06/16 11:54:44;;;;;;;;;;;;;;;27.06;27.16;100331.03;1767802;81;20238;-80
2022/06/16 11:58:10;;;;;;;;;;;;;;;27.09;27.64;100335.25;1765427;81;20234;-80
2022/06/16 12:01:31;;;;;;;;;;;;;;;27.03;27.71;100331.59;1737727;82;20228;-80
2022/06/16 12:04:47;;;;;;;;;;;;;;;26.91;28.20;100340.88;1710571;82;20611;-80
2022/06/16 12:07:56;;;;;;;;;;;;;;;26.67;28.03;100321.00;1765588;81;20208;-80
2022/06/16 12:11:05;;;;;;;;;;;;;;;26.44;28.90;100328.03;1699164;84;20234;-80
2022/06/16 12:14:28;;;;;;;;;;;;;;;26.42;29.07;100327.45;1732368;83;20250;-81
2022/06/16 12:17:37;;;;;;;;;;;;;;;26.42;28.64;100326.89;1682677;82;20202;-80
2022/06/16 12:21:31;;;;;;;;;;;;;;;26.38;28.25;100325.77;1740710;82;20281;-80
2022/06/16 12:24:46;;;;;;;;;;;;;;;26.35;28.30;100320.73;1710636;82;20251;-80
2022/06/16 12:28:16;;;;;;;;;;;;;;;26.39;27.51;100322.39;1736202;82;20653;-80
2022/06/16 12:31:38;;;;;;;;;;;;;;;26.52;27.20;100322.42;1759598;81;20621;-80
2022/06/16 12:35:02;;;;;;;;;;;;;;;26.61;27.57;100322.98;1740926;82;20622;-80
2022/06/16 12:38:17;;;;;;;;;;;;;;;26.61;26.23;100320.17;1744171;82;20591;-80
2022/06/16 12:41:28;;;;;;;;;;;;;;;26.50;26.03;100314.31;1715330;83;20227;-80
2022/06/16 12:44:39;;;;;;;;;;;;;;;26.36;26.08;100315.97;1737924;82;20220;-80
2022/06/16 12:48:16;;;;;;;;;;;;;;;26.27;26.91;100314.28;1737174;82;20249;-81
2022/06/16 12:51:22;;;;;;;;;;;;;;;26.23;28.04;100313.16;1722300;82;20262;-80
2022/06/16 12:54:28;;;;;;;;;;;;;;;26.16;28.40;100319.05;1715276;83;20215;-80
2022/06/16 12:57:36;;;;;;;;;;;;;;;26.04;28.59;100329.68;1714899;83;20180;-80
2022/06/16 13:00:43;;;;;;;;;;;;;;;25.84;28.81;100313.69;1728356;81;20301;-80
2022/06/16 13:04:11;;;;;;;;;;;;;;;25.72;29.17;100315.29;1745031;82;20213;-81
2022/06/16 13:07:23;;;;;;;;;;;;;;;25.72;29.19;100313.05;1736214;82;20213;-80
2022/06/16 13:10:28;;;;;;;;;;;;;;;25.72;29.35;100315.29;1736726;82;20203;-80
2022/06/16 13:13:37;;;;;;;;;;;;;;;25.74;29.95;100309.44;1728556;83;20265;-80
2022/06/16 13:16:42;;;;;;;;;;;;;;;25.81;29.73;100317.59;1719932;83;20629;-80
2022/06/16 13:19:57;;;;;;;;;;;;;;;25.85;29.55;100310.32;1720696;83;20175;-80
2022/06/16 13:23:03;;;;;;;;;;;;;;;25.81;29.74;100311.42;1746598;81;20249;-80
2022/06/16 13:26:34;;;;;;;;;;;;;;;25.70;29.60;100310.54;1729794;82;20231;-80
2022/06/16 13:29:59;;;;;;;;;;;;;;;25.60;29.60;100311.92;1735186;82;20261;-80
2022/06/16 13:33:15;;;;;;;;;;;;;;;25.45;29.80;100313.25;1751478;82;20629;-80
2022/06/16 13:36:23;;;;;;;;;;;;;;;25.35;29.96;100308.45;1721667;83;20215;-80
2022/06/16 13:40:05;;;;;;;;;;;;;;;25.31;29.90;100297.52;1734073;82;20217;-81
2022/06/16 13:43:05;;;;;;;;;;;;;;;25.30;30.17;100298.64;1722744;83;20235;-80
2022/06/16 13:46:06;;;;;;;;;;;;;;;25.29;30.18;100292.77;1722486;83;20215;-80
2022/06/16 13:48:52;;;;;;;;;;;;;;;25.35;30.43;100293.63;1722127;83;20255;-80
2022/06/16 13:52:00;;;;;;;;;;;;;;;25.45;29.89;100288.05;1721977;83;20207;-81
2022/06/16 13:55:13;;;;;;;;;;;;;;;25.49;29.71;100291.98;1721762;82;20235;-81
2022/06/16 13:58:24;;;;;;;;;;;;;;;25.58;29.87;100297.33;1704286;84;20203;-81
2022/06/16 14:01:32;;;;;;;;;;;;;;;25.65;29.82;100294.28;1722791;83;20243;-81
2022/06/16 14:04:36;;;;;;;;;;;;;;;25.70;29.37;100299.90;1710250;84;20243;-79
2022/06/16 14:07:55;;;;;;;;;;;;;;;25.72;29.13;100299.89;1721223;83;20223;-79
2022/06/16 14:11:01;;;;;;;;;;;;;;;25.73;28.46;100301.56;1704267;83;20213;-79
2022/06/16 14:14:19;;;;;;;;;;;;;;;25.64;28.67;100306.05;1746563;81;20620;-79
2022/06/16 14:17:44;;;;;;;;;;;;;;;25.54;29.58;100306.56;1712572;83;20320;-79
2022/06/16 14:20:50;;;;;;;;;;;;;;;25.47;29.48;100304.03;1752144;81;20219;-79
2022/06/16 14:23:59;;;;;;;;;;;;;;;25.39;30.02;100301.76;1763696;81;20222;-79
2022/06/16 14:26:58;;;;;;;;;;;;;;;25.30;30.97;100296.41;1730087;81;20201;-79
2022/06/16 14:29:50;;;;;;;;;;;;;;;25.16;31.13;100301.66;1734761;82;20237;-79
2022/06/16 14:32:59;;;;;;;;;;;;;;;25.06;31.38;100301.03;1723594;83;20636;-79
2022/06/16 14:36:18;;;;;;;;;;;;;;;24.97;32.08;100296.50;1746743;81;20254;-79
2022/06/16 14:39:35;;;;;;;;;;;;;;;24.91;32.44;100295.36;1709623;82;20214;-79
2022/06/16 14:42:40;;;;;;;;;;;;;;;24.89;32.52;100298.44;1765619;81;20431;-79
2022/06/16 14:46:00;;;;;;;;;;;;;;;24.85;32.77;100295.89;1767592;81;20212;-79
2022/06/16 14:49:08;;;;;;;;;;;;;;;24.87;32.75;100295.61;1767171;81;20176;-79
2022/06/16 14:52:13;;;;;;;;;;;;;;;24.90;32.77;100288.09;1767729;81;20620;-79
2022/06/16 14:55:22;;;;;;;;;;;;;;;24.95;31.96;100281.95;1747475;81;20216;-79
2022/06/16 14:58:28;;;;;;;;;;;;;;;25.03;31.09;100282.01;1729453;83;20214;-79
2022/06/16 15:01:41;;;;;;;;;;;;;;;25.11;30.69;100268.90;1730410;83;20713;-79
2022/06/16 15:04:48;;;;;;;;;;;;;;;25.21;30.43;100263.34;1738714;82;20245;-80
2022/06/16 15:07:54;;;;;;;;;;;;;;;25.22;30.86;100262.24;1738268;82;20221;-79
2022/06/16 15:10:58;;;;;;;;;;;;;;;25.18;31.83;100258.87;1739472;82;20703;-79
2022/06/16 15:14:06;;;;;;;;;;;;;;;25.09;31.41;100262.75;1733170;82;20619;-79
2022/06/16 15:20:36;;;;;;;;;;;;;;;24.82;31.60;100274.61;1728428;83;20245;-79
2022/06/16 15:23:43;;;;;;;;;;;;;;;24.68;32.01;100270.89;1724926;83;20252;-79
2022/06/16 15:26:47;;;;;;;;;;;;;;;24.58;32.53;100272.80;1708225;83;20223;-79
2022/06/16 15:29:53;;;;;;;;;;;;;;;24.52;32.86;100266.33;1718261;82;20714;-79
2022/06/16 15:36:23;;;;;;;;;;;;;;;24.46;32.22;100268.78;1739427;82;20217;-80
2022/06/16 15:39:34;;;;;;;;;;;;;;;24.44;31.66;100262.63;1711018;84;20233;-80
2022/06/16 15:42:39;;;;;;;;;;;;;;;24.42;31.89;100270.46;1681521;85;20238;-80
2022/06/16 15:45:43;;;;;;;;;;;;;;;24.39;32.02;100264.00;1682652;85;20264;-80
2022/06/16 15:48:49;;;;;;;;;;;;;;;24.36;32.18;100263.97;1718467;82;20217;-80
2022/06/16 15:51:54;;;;;;;;;;;;;;;24.34;32.34;100264.77;1711395;84;20677;-80
2022/06/16 15:55:04;;;;;;;;;;;;;;;24.33;32.54;100272.04;1727083;82;20294;-80
2022/06/16 15:58:12;;;;;;;;;;;;;;;24.31;32.76;100267.25;1699891;82;20624;-80
2022/06/16 16:01:16;;;;;;;;;;;;;;;24.27;32.90;100265.55;1732591;83;20253;-80
2022/06/16 16:04:22;;;;;;;;;;;;;;;24.22;32.66;100275.28;1711765;83;20194;-80
2022/06/16 16:07:27;;;;;;;;;;;;;;;24.19;33.02;100275.84;1707401;83;20241;-80
2022/06/16 16:10:34;;;;;;;;;;;;;;;24.13;32.88;100277.72;1719189;83;20228;-80
2022/06/16 16:14:01;;;;;;;;;;;;;;;24.09;32.98;100275.73;1732783;83;20282;-80
2022/06/16 16:17:08;;;;;;;;;;;;;;;24.03;33.40;100280.44;1745079;82;20346;-80
2022/06/16 16:20:14;;;;;;;;;;;;;;;23.95;33.38;100278.16;1719224;82;20219;-80
2022/06/16 16:23:24;;;;;;;;;;;;;;;23.88;33.66;100275.56;1754071;81;20566;-80
2022/06/16 16:26:29;;;;;;;;;;;;;;;23.82;34.02;100273.00;1747543;82;20228;-80
2022/06/16 16:29:35;;;;;;;;;;;;;;;23.77;33.88;100279.94;1768479;80;20236;-80
2022/06/16 16:32:40;;;;;;;;;;;;;;;23.71;33.79;100274.30;1752125;80;20227;-80
2022/06/16 16:35:45;;;;;;;;;;;;;;;23.64;34.32;100273.66;1755332;81;20247;-80